sensor_id;sensor_type;location;lat;lon;timestamp;temperature;humidity
2913;DHT22;1466;48.778;9.166;2023-04-03T00:00:49;6.90;96.50
2913;DHT22;1466;48.778;9.166;2023-04-03T00:03:15;6.90;96.60
2913;DHT22;1466;48.778;9.166;2023-04-03T00:05:41;6.90;96.60
2913;DHT22;1466;48.778;9.166;2023-04-03T00:08:07;6.90;96.70
2913;DHT22;1466;48.778;9.166;2023-04-03T00:10:35;7.00;96.60
2913;DHT22;1466;48.778;9.166;2023-04-03T00:13:01;7.00;96.50
2913;DHT22;1466;48.778;9.166;2023-04-03T00:15:27;7.00;96.50
2913;DHT22;1466;48.778;9.166;2023-04-03T00:17:52;7.00;96.50
2913;DHT22;1466;48.778;9.166;2023-04-03T00:20:18;6.90;96.40
2913;DHT22;1466;48.778;9.166;2023-04-03T00:22:43;6.90;96.50
2913;DHT22;1466;48.778;9.166;2023-04-03T00:25:09;6.90;96.50
2913;DHT22;1466;48.778;9.166;2023-04-03T00:27:37;6.90;96.50
2913;DHT22;1466;48.778;9.166;2023-04-03T00:30:03;6.90;96.50
2913;DHT22;1466;48.778;9.166;2023-04-03T00:32:29;6.80;96.40
2913;DHT22;1466;48.778;9.166;2023-04-03T00:34:55;6.70;96.50
2913;DHT22;1466;48.778;9.166;2023-04-03T00:37:20;6.70;96.60
2913;DHT22;1466;48.778;9.166;2023-04-03T00:39:46;6.60;96.70
2913;DHT22;1466;48.778;9.166;2023-04-03T00:42:12;6.50;96.70
2913;DHT22;1466;48.778;9.166;2023-04-03T00:47:06;6.50;97.10
2913;DHT22;1466;48.778;9.166;2023-04-03T00:49:32;6.60;97.10
2913;DHT22;1466;48.778;9.166;2023-04-03T00:51:58;6.60;96.80
2913;DHT22;1466;48.778;9.166;2023-04-03T00:54:25;6.60;96.80
2913;DHT22;1466;48.778;9.166;2023-04-03T00:56:52;6.50;96.90
2913;DHT22;1466;48.778;9.166;2023-04-03T00:59:22;6.50;97.00
2913;DHT22;1466;48.778;9.166;2023-04-03T01:01:51;6.50;97.00
2913;DHT22;1466;48.778;9.166;2023-04-03T01:07:01;6.50;97.10
2913;DHT22;1466;48.778;9.166;2023-04-03T01:09:28;6.50;97.20
2913;DHT22;1466;48.778;9.166;2023-04-03T01:12:03;6.50;97.10
2913;DHT22;1466;48.778;9.166;2023-04-03T01:14:37;6.40;97.20
2913;DHT22;1466;48.778;9.166;2023-04-03T01:17:03;6.50;97.10
2913;DHT22;1466;48.778;9.166;2023-04-03T01:19:28;6.60;97.10
2913;DHT22;1466;48.778;9.166;2023-04-03T01:22:24;6.60;97.10
2913;DHT22;1466;48.778;9.166;2023-04-03T01:24:51;6.80;97.00
2913;DHT22;1466;48.778;9.166;2023-04-03T01:27:18;6.80;96.90
2913;DHT22;1466;48.778;9.166;2023-04-03T01:29:44;6.80;97.00
2913;DHT22;1466;48.778;9.166;2023-04-03T01:32:10;6.80;96.90
2913;DHT22;1466;48.778;9.166;2023-04-03T01:34:36;6.80;96.80
2913;DHT22;1466;48.778;9.166;2023-04-03T01:37:01;6.80;96.90
2913;DHT22;1466;48.778;9.166;2023-04-03T01:39:27;6.80;96.90
2913;DHT22;1466;48.778;9.166;2023-04-03T01:41:53;6.90;96.80
2913;DHT22;1466;48.778;9.166;2023-04-03T01:44:18;6.90;96.70
2913;DHT22;1466;48.778;9.166;2023-04-03T01:46:44;6.90;96.70
2913;DHT22;1466;48.778;9.166;2023-04-03T01:49:10;6.80;96.60
2913;DHT22;1466;48.778;9.166;2023-04-03T01:51:35;6.80;96.60
2913;DHT22;1466;48.778;9.166;2023-04-03T01:54:01;6.80;96.70
2913;DHT22;1466;48.778;9.166;2023-04-03T01:56:27;6.80;96.60
2913;DHT22;1466;48.778;9.166;2023-04-03T01:58:52;6.80;96.50
2913;DHT22;1466;48.778;9.166;2023-04-03T02:01:18;6.80;96.70
2913;DHT22;1466;48.778;9.166;2023-04-03T02:03:43;6.70;96.40
2913;DHT22;1466;48.778;9.166;2023-04-03T02:06:09;6.70;96.40
2913;DHT22;1466;48.778;9.166;2023-04-03T02:08:35;6.70;96.50
2913;DHT22;1466;48.778;9.166;2023-04-03T02:11:01;6.70;96.60
2913;DHT22;1466;48.778;9.166;2023-04-03T02:13:26;6.70;96.60
2913;DHT22;1466;48.778;9.166;2023-04-03T02:15:52;6.70;96.70
2913;DHT22;1466;48.778;9.166;2023-04-03T02:18:17;6.70;96.40
2913;DHT22;1466;48.778;9.166;2023-04-03T02:20:43;6.70;96.40
2913;DHT22;1466;48.778;9.166;2023-04-03T02:23:09;6.70;96.50
2913;DHT22;1466;48.778;9.166;2023-04-03T02:25:35;6.70;96.50
2913;DHT22;1466;48.778;9.166;2023-04-03T02:28:00;6.70;96.70
2913;DHT22;1466;48.778;9.166;2023-04-03T02:30:26;6.60;96.40
2913;DHT22;1466;48.778;9.166;2023-04-03T02:32:52;6.60;96.20
2913;DHT22;1466;48.778;9.166;2023-04-03T02:35:18;6.60;96.10
2913;DHT22;1466;48.778;9.166;2023-04-03T02:37:44;6.60;95.80
2913;DHT22;1466;48.778;9.166;2023-04-03T02:40:10;6.50;95.60
2913;DHT22;1466;48.778;9.166;2023-04-03T02:42:36;6.50;95.60
2913;DHT22;1466;48.778;9.166;2023-04-03T02:45:02;6.50;95.60
2913;DHT22;1466;48.778;9.166;2023-04-03T02:47:28;6.60;95.60
2913;DHT22;1466;48.778;9.166;2023-04-03T02:49:54;6.60;95.50
2913;DHT22;1466;48.778;9.166;2023-04-03T02:52:20;6.60;95.50
2913;DHT22;1466;48.778;9.166;2023-04-03T02:54:46;6.60;95.30
2913;DHT22;1466;48.778;9.166;2023-04-03T02:57:12;6.60;95.30
2913;DHT22;1466;48.778;9.166;2023-04-03T02:59:38;6.60;95.20
2913;DHT22;1466;48.778;9.166;2023-04-03T03:02:09;6.60;95.20
2913;DHT22;1466;48.778;9.166;2023-04-03T03:04:35;6.70;95.30
2913;DHT22;1466;48.778;9.166;2023-04-03T03:07:01;6.70;95.30
2913;DHT22;1466;48.778;9.166;2023-04-03T03:09:27;6.70;95.30
2913;DHT22;1466;48.778;9.166;2023-04-03T03:11:53;6.70;95.20
2913;DHT22;1466;48.778;9.166;2023-04-03T03:14:18;6.70;95.20
2913;DHT22;1466;48.778;9.166;2023-04-03T03:16:44;6.70;95.20
2913;DHT22;1466;48.778;9.166;2023-04-03T03:19:10;6.70;95.10
2913;DHT22;1466;48.778;9.166;2023-04-03T03:21:35;6.70;95.10
2913;DHT22;1466;48.778;9.166;2023-04-03T03:24:01;6.70;95.00
2913;DHT22;1466;48.778;9.166;2023-04-03T03:26:27;6.70;95.00
2913;DHT22;1466;48.778;9.166;2023-04-03T03:28:52;6.80;95.30
2913;DHT22;1466;48.778;9.166;2023-04-03T03:31:18;6.80;95.00
2913;DHT22;1466;48.778;9.166;2023-04-03T03:33:43;6.80;94.90
2913;DHT22;1466;48.778;9.166;2023-04-03T03:36:09;6.80;94.90
2913;DHT22;1466;48.778;9.166;2023-04-03T03:38:36;6.80;94.90
2913;DHT22;1466;48.778;9.166;2023-04-03T03:41:02;6.80;94.70
2913;DHT22;1466;48.778;9.166;2023-04-03T03:43:28;6.70;94.60
2913;DHT22;1466;48.778;9.166;2023-04-03T03:45:53;6.70;94.60
2913;DHT22;1466;48.778;9.166;2023-04-03T03:48:20;6.60;94.40
2913;DHT22;1466;48.778;9.166;2023-04-03T03:50:46;6.50;94.40
2913;DHT22;1466;48.778;9.166;2023-04-03T03:53:12;6.50;94.60
2913;DHT22;1466;48.778;9.166;2023-04-03T03:55:38;6.50;94.70
2913;DHT22;1466;48.778;9.166;2023-04-03T03:58:03;6.50;94.70
2913;DHT22;1466;48.778;9.166;2023-04-03T04:00:29;6.50;94.70
2913;DHT22;1466;48.778;9.166;2023-04-03T04:02:55;6.60;94.70
2913;DHT22;1466;48.778;9.166;2023-04-03T04:05:21;6.70;94.70
2913;DHT22;1466;48.778;9.166;2023-04-03T04:07:47;6.70;94.50
2913;DHT22;1466;48.778;9.166;2023-04-03T04:10:13;6.70;94.50
2913;DHT22;1466;48.778;9.166;2023-04-03T04:12:39;6.70;94.40
2913;DHT22;1466;48.778;9.166;2023-04-03T04:15:05;6.60;94.20
2913;DHT22;1466;48.778;9.166;2023-04-03T04:17:31;6.60;94.60
2913;DHT22;1466;48.778;9.166;2023-04-03T04:19:56;6.60;94.20
2913;DHT22;1466;48.778;9.166;2023-04-03T04:22:22;6.60;94.20
2913;DHT22;1466;48.778;9.166;2023-04-03T04:24:48;6.50;93.90
2913;DHT22;1466;48.778;9.166;2023-04-03T04:27:13;6.30;93.80
2913;DHT22;1466;48.778;9.166;2023-04-03T04:29:39;6.30;93.90
2913;DHT22;1466;48.778;9.166;2023-04-03T04:32:04;6.30;94.10
2913;DHT22;1466;48.778;9.166;2023-04-03T04:34:30;6.40;94.00
2913;DHT22;1466;48.778;9.166;2023-04-03T04:36:56;6.40;93.90
2913;DHT22;1466;48.778;9.166;2023-04-03T04:39:22;6.40;93.80
2913;DHT22;1466;48.778;9.166;2023-04-03T04:41:47;6.40;93.70
2913;DHT22;1466;48.778;9.166;2023-04-03T04:44:13;6.40;93.70
2913;DHT22;1466;48.778;9.166;2023-04-03T04:46:38;6.40;93.50
2913;DHT22;1466;48.778;9.166;2023-04-03T04:49:04;6.40;93.50
2913;DHT22;1466;48.778;9.166;2023-04-03T04:51:30;6.50;93.40
2913;DHT22;1466;48.778;9.166;2023-04-03T04:53:55;6.60;93.40
2913;DHT22;1466;48.778;9.166;2023-04-03T04:56:21;6.60;93.20
2913;DHT22;1466;48.778;9.166;2023-04-03T04:58:46;6.60;93.00
2913;DHT22;1466;48.778;9.166;2023-04-03T05:01:12;6.60;93.10
2913;DHT22;1466;48.778;9.166;2023-04-03T05:03:38;6.60;93.10
2913;DHT22;1466;48.778;9.166;2023-04-03T05:06:03;6.60;92.90
2913;DHT22;1466;48.778;9.166;2023-04-03T05:08:29;6.60;92.90
2913;DHT22;1466;48.778;9.166;2023-04-03T05:10:55;6.70;92.80
2913;DHT22;1466;48.778;9.166;2023-04-03T05:13:21;6.70;92.70
2913;DHT22;1466;48.778;9.166;2023-04-03T05:15:47;6.70;92.60
2913;DHT22;1466;48.778;9.166;2023-04-03T05:18:13;6.80;92.50
2913;DHT22;1466;48.778;9.166;2023-04-03T05:20:39;6.80;92.10
2913;DHT22;1466;48.778;9.166;2023-04-03T05:23:04;6.70;92.10
2913;DHT22;1466;48.778;9.166;2023-04-03T05:25:30;6.70;92.10
2913;DHT22;1466;48.778;9.166;2023-04-03T05:27:56;6.80;92.30
2913;DHT22;1466;48.778;9.166;2023-04-03T05:30:22;6.80;92.10
2913;DHT22;1466;48.778;9.166;2023-04-03T05:32:47;6.80;91.70
2913;DHT22;1466;48.778;9.166;2023-04-03T05:35:13;6.70;91.90
2913;DHT22;1466;48.778;9.166;2023-04-03T05:37:39;6.70;91.80
2913;DHT22;1466;48.778;9.166;2023-04-03T05:40:06;6.70;92.00
2913;DHT22;1466;48.778;9.166;2023-04-03T05:42:32;6.60;92.00
2913;DHT22;1466;48.778;9.166;2023-04-03T05:44:58;6.50;92.00
2913;DHT22;1466;48.778;9.166;2023-04-03T05:47:24;6.50;92.20
2913;DHT22;1466;48.778;9.166;2023-04-03T05:49:49;6.50;92.10
2913;DHT22;1466;48.778;9.166;2023-04-03T05:52:25;6.50;92.10
2913;DHT22;1466;48.778;9.166;2023-04-03T05:54:52;6.50;92.10
2913;DHT22;1466;48.778;9.166;2023-04-03T05:57:17;6.50;92.10
2913;DHT22;1466;48.778;9.166;2023-04-03T05:59:44;6.40;92.00
2913;DHT22;1466;48.778;9.166;2023-04-03T06:02:17;6.30;92.10
2913;DHT22;1466;48.778;9.166;2023-04-03T06:04:44;6.40;92.30
2913;DHT22;1466;48.778;9.166;2023-04-03T06:07:15;6.40;92.30
2913;DHT22;1466;48.778;9.166;2023-04-03T06:09:42;6.40;92.30
2913;DHT22;1466;48.778;9.166;2023-04-03T06:12:08;6.40;92.20
2913;DHT22;1466;48.778;9.166;2023-04-03T06:14:34;6.40;92.20
2913;DHT22;1466;48.778;9.166;2023-04-03T06:16:59;6.40;92.30
2913;DHT22;1466;48.778;9.166;2023-04-03T06:19:25;6.40;92.10
2913;DHT22;1466;48.778;9.166;2023-04-03T06:21:51;6.50;92.20
2913;DHT22;1466;48.778;9.166;2023-04-03T06:24:17;6.40;92.00
2913;DHT22;1466;48.778;9.166;2023-04-03T06:26:43;6.50;92.10
2913;DHT22;1466;48.778;9.166;2023-04-03T06:29:09;6.40;92.20
2913;DHT22;1466;48.778;9.166;2023-04-03T06:31:35;6.50;92.30
2913;DHT22;1466;48.778;9.166;2023-04-03T06:34:02;6.60;92.30
2913;DHT22;1466;48.778;9.166;2023-04-03T06:36:29;6.60;92.20
2913;DHT22;1466;48.778;9.166;2023-04-03T06:38:55;6.70;92.30
2913;DHT22;1466;48.778;9.166;2023-04-03T06:41:21;6.70;92.30
2913;DHT22;1466;48.778;9.166;2023-04-03T06:43:47;6.70;92.40
2913;DHT22;1466;48.778;9.166;2023-04-03T06:46:17;6.80;92.30
2913;DHT22;1466;48.778;9.166;2023-04-03T06:48:44;6.80;92.20
2913;DHT22;1466;48.778;9.166;2023-04-03T06:51:19;6.80;92.30
2913;DHT22;1466;48.778;9.166;2023-04-03T06:53:47;6.90;92.40
2913;DHT22;1466;48.778;9.166;2023-04-03T06:56:12;6.70;92.10
2913;DHT22;1466;48.778;9.166;2023-04-03T06:58:39;6.80;92.20
2913;DHT22;1466;48.778;9.166;2023-04-03T07:01:04;6.70;92.30
2913;DHT22;1466;48.778;9.166;2023-04-03T07:03:30;6.80;92.60
2913;DHT22;1466;48.778;9.166;2023-04-03T07:05:56;6.80;92.60
2913;DHT22;1466;48.778;9.166;2023-04-03T07:08:22;7.00;92.60
2913;DHT22;1466;48.778;9.166;2023-04-03T07:10:49;7.00;92.60
2913;DHT22;1466;48.778;9.166;2023-04-03T07:13:15;7.00;92.50
2913;DHT22;1466;48.778;9.166;2023-04-03T07:15:41;7.00;92.50
2913;DHT22;1466;48.778;9.166;2023-04-03T07:18:06;7.00;92.50
2913;DHT22;1466;48.778;9.166;2023-04-03T07:20:32;7.10;92.80
2913;DHT22;1466;48.778;9.166;2023-04-03T07:22:58;7.10;92.50
2913;DHT22;1466;48.778;9.166;2023-04-03T07:25:23;7.10;92.60
2913;DHT22;1466;48.778;9.166;2023-04-03T07:27:49;7.20;92.60
2913;DHT22;1466;48.778;9.166;2023-04-03T07:30:15;7.10;92.50
2913;DHT22;1466;48.778;9.166;2023-04-03T07:32:40;7.20;92.60
2913;DHT22;1466;48.778;9.166;2023-04-03T07:35:06;7.20;92.50
2913;DHT22;1466;48.778;9.166;2023-04-03T07:37:32;7.20;92.30
2913;DHT22;1466;48.778;9.166;2023-04-03T07:39:58;7.30;92.50
2913;DHT22;1466;48.778;9.166;2023-04-03T07:42:24;7.40;92.50
2913;DHT22;1466;48.778;9.166;2023-04-03T07:44:53;7.40;92.30
2913;DHT22;1466;48.778;9.166;2023-04-03T07:47:18;7.40;92.20
2913;DHT22;1466;48.778;9.166;2023-04-03T07:49:45;7.30;92.30
2913;DHT22;1466;48.778;9.166;2023-04-03T07:52:11;7.30;92.50
2913;DHT22;1466;48.778;9.166;2023-04-03T07:54:37;7.40;92.40
2913;DHT22;1466;48.778;9.166;2023-04-03T07:57:03;7.50;92.50
2913;DHT22;1466;48.778;9.166;2023-04-03T07:59:28;7.50;92.50
2913;DHT22;1466;48.778;9.166;2023-04-03T08:01:54;7.50;92.10
2913;DHT22;1466;48.778;9.166;2023-04-03T08:04:20;7.40;92.00
2913;DHT22;1466;48.778;9.166;2023-04-03T08:06:46;7.40;92.50
2913;DHT22;1466;48.778;9.166;2023-04-03T08:09:11;7.40;92.30
2913;DHT22;1466;48.778;9.166;2023-04-03T08:11:39;7.40;92.40
2913;DHT22;1466;48.778;9.166;2023-04-03T08:14:05;7.50;92.60
2913;DHT22;1466;48.778;9.166;2023-04-03T08:16:30;7.50;92.60
2913;DHT22;1466;48.778;9.166;2023-04-03T08:18:56;7.60;92.60
2913;DHT22;1466;48.778;9.166;2023-04-03T08:21:22;7.60;92.60
2913;DHT22;1466;48.778;9.166;2023-04-03T08:23:48;7.70;92.70
2913;DHT22;1466;48.778;9.166;2023-04-03T08:26:19;7.70;92.50
2913;DHT22;1466;48.778;9.166;2023-04-03T08:28:45;7.70;92.50
2913;DHT22;1466;48.778;9.166;2023-04-03T08:31:13;7.60;92.50
2913;DHT22;1466;48.778;9.166;2023-04-03T08:33:39;7.60;93.00
2913;DHT22;1466;48.778;9.166;2023-04-03T08:36:07;7.70;92.70
2913;DHT22;1466;48.778;9.166;2023-04-03T08:38:34;7.70;92.50
2913;DHT22;1466;48.778;9.166;2023-04-03T08:41:15;7.60;92.50
2913;DHT22;1466;48.778;9.166;2023-04-03T08:43:56;7.70;92.60
2913;DHT22;1466;48.778;9.166;2023-04-03T08:46:31;7.70;92.50
2913;DHT22;1466;48.778;9.166;2023-04-03T08:48:58;7.70;92.50
2913;DHT22;1466;48.778;9.166;2023-04-03T08:51:26;7.70;92.70
2913;DHT22;1466;48.778;9.166;2023-04-03T08:54:00;7.70;92.50
2913;DHT22;1466;48.778;9.166;2023-04-03T08:56:29;7.70;92.50
2913;DHT22;1466;48.778;9.166;2023-04-03T08:58:58;7.70;92.50
2913;DHT22;1466;48.778;9.166;2023-04-03T09:01:34;7.70;92.40
2913;DHT22;1466;48.778;9.166;2023-04-03T09:04:02;7.70;92.50
2913;DHT22;1466;48.778;9.166;2023-04-03T09:06:31;7.70;92.50
2913;DHT22;1466;48.778;9.166;2023-04-03T09:11:54;7.80;92.30
2913;DHT22;1466;48.778;9.166;2023-04-03T09:17:41;7.90;92.20
2913;DHT22;1466;48.778;9.166;2023-04-03T09:22:42;8.10;91.70
2913;DHT22;1466;48.778;9.166;2023-04-03T09:27:41;8.00;91.40
2913;DHT22;1466;48.778;9.166;2023-04-03T09:30:14;8.00;91.40
2913;DHT22;1466;48.778;9.166;2023-04-03T09:32:40;8.00;91.40
2913;DHT22;1466;48.778;9.166;2023-04-03T09:35:30;8.00;91.50
2913;DHT22;1466;48.778;9.166;2023-04-03T09:40:36;8.10;91.60
2913;DHT22;1466;48.778;9.166;2023-04-03T09:43:23;8.00;91.80
2913;DHT22;1466;48.778;9.166;2023-04-03T09:45:50;8.00;91.60
2913;DHT22;1466;48.778;9.166;2023-04-03T09:53:45;8.30;91.30
2913;DHT22;1466;48.778;9.166;2023-04-03T09:58:50;8.40;90.90
2913;DHT22;1466;48.778;9.166;2023-04-03T10:06:47;8.30;90.20
2913;DHT22;1466;48.778;9.166;2023-04-03T10:09:25;8.40;90.30
2913;DHT22;1466;48.778;9.166;2023-04-03T10:12:00;8.40;90.30
2913;DHT22;1466;48.778;9.166;2023-04-03T10:14:27;8.50;90.40
2913;DHT22;1466;48.778;9.166;2023-04-03T10:17:36;8.30;89.90
2913;DHT22;1466;48.778;9.166;2023-04-03T10:23:05;8.40;90.20
2913;DHT22;1466;48.778;9.166;2023-04-03T10:28:45;8.60;89.90
2913;DHT22;1466;48.778;9.166;2023-04-03T10:34:05;8.60;88.40
2913;DHT22;1466;48.778;9.166;2023-04-03T10:39:45;8.40;87.70
2913;DHT22;1466;48.778;9.166;2023-04-03T10:47:34;8.20;88.90
2913;DHT22;1466;48.778;9.166;2023-04-03T10:50:54;8.20;88.40
2913;DHT22;1466;48.778;9.166;2023-04-03T10:53:57;8.20;88.70
2913;DHT22;1466;48.778;9.166;2023-04-03T10:59:26;8.40;87.50
2913;DHT22;1466;48.778;9.166;2023-04-03T11:02:26;8.40;87.70
2913;DHT22;1466;48.778;9.166;2023-04-03T11:07:48;8.50;86.60
2913;DHT22;1466;48.778;9.166;2023-04-03T11:10:21;8.50;86.40
2913;DHT22;1466;48.778;9.166;2023-04-03T11:12:54;8.50;86.30
2913;DHT22;1466;48.778;9.166;2023-04-03T11:15:24;8.60;85.70
2913;DHT22;1466;48.778;9.166;2023-04-03T11:17:55;8.60;85.90
2913;DHT22;1466;48.778;9.166;2023-04-03T11:20:30;8.70;85.00
2913;DHT22;1466;48.778;9.166;2023-04-03T11:23:04;8.70;84.10
2913;DHT22;1466;48.778;9.166;2023-04-03T11:25:33;8.70;83.40
2913;DHT22;1466;48.778;9.166;2023-04-03T11:28:02;8.70;83.20
2913;DHT22;1466;48.778;9.166;2023-04-03T11:36:32;8.60;81.60
2913;DHT22;1466;48.778;9.166;2023-04-03T11:41:53;8.50;82.60
2913;DHT22;1466;48.778;9.166;2023-04-03T11:44:36;8.50;82.70
2913;DHT22;1466;48.778;9.166;2023-04-03T11:47:10;8.50;82.70
2913;DHT22;1466;48.778;9.166;2023-04-03T12:16:25;8.70;80.60
2913;DHT22;1466;48.778;9.166;2023-04-03T12:26:47;8.70;80.20
2913;DHT22;1466;48.778;9.166;2023-04-03T12:35:14;8.80;80.20
2913;DHT22;1466;48.778;9.166;2023-04-03T12:46:22;8.90;79.40
2913;DHT22;1466;48.778;9.166;2023-04-03T12:51:14;8.70;79.10
2913;DHT22;1466;48.778;9.166;2023-04-03T12:53:40;8.80;79.80
2913;DHT22;1466;48.778;9.166;2023-04-03T12:56:25;9.00;79.90
2913;DHT22;1466;48.778;9.166;2023-04-03T12:58:52;9.10;78.00
2913;DHT22;1466;48.778;9.166;2023-04-03T13:01:24;9.20;78.00
2913;DHT22;1466;48.778;9.166;2023-04-03T13:03:56;9.10;77.40
2913;DHT22;1466;48.778;9.166;2023-04-03T13:06:23;9.10;77.60
2913;DHT22;1466;48.778;9.166;2023-04-03T13:08:53;9.10;77.50
2913;DHT22;1466;48.778;9.166;2023-04-03T13:11:21;9.10;77.70
2913;DHT22;1466;48.778;9.166;2023-04-03T13:13:57;9.30;77.90
2913;DHT22;1466;48.778;9.166;2023-04-03T13:16:22;9.40;77.20
2913;DHT22;1466;48.778;9.166;2023-04-03T13:18:53;9.40;75.70
2913;DHT22;1466;48.778;9.166;2023-04-03T13:21:24;9.30;74.10
2913;DHT22;1466;48.778;9.166;2023-04-03T13:23:55;9.30;74.40
2913;DHT22;1466;48.778;9.166;2023-04-03T13:26:22;9.40;74.50
2913;DHT22;1466;48.778;9.166;2023-04-03T13:28:49;9.50;74.50
2913;DHT22;1466;48.778;9.166;2023-04-03T13:31:35;9.40;74.30
2913;DHT22;1466;48.778;9.166;2023-04-03T13:37:02;9.10;74.50
2913;DHT22;1466;48.778;9.166;2023-04-03T13:39:32;9.10;75.20
2913;DHT22;1466;48.778;9.166;2023-04-03T13:42:00;9.10;75.60
2913;DHT22;1466;48.778;9.166;2023-04-03T13:44:33;9.20;74.90
2913;DHT22;1466;48.778;9.166;2023-04-03T13:47:14;9.30;73.80
2913;DHT22;1466;48.778;9.166;2023-04-03T13:49:43;9.30;73.40
2913;DHT22;1466;48.778;9.166;2023-04-03T13:54:52;9.70;73.30
2913;DHT22;1466;48.778;9.166;2023-04-03T13:57:18;9.80;73.00
2913;DHT22;1466;48.778;9.166;2023-04-03T13:59:44;9.90;73.10
2913;DHT22;1466;48.778;9.166;2023-04-03T14:02:30;10.00;70.70
2913;DHT22;1466;48.778;9.166;2023-04-03T14:04:58;10.00;70.00
2913;DHT22;1466;48.778;9.166;2023-04-03T14:07:28;9.90;70.10
2913;DHT22;1466;48.778;9.166;2023-04-03T14:09:57;9.80;70.40
2913;DHT22;1466;48.778;9.166;2023-04-03T14:12:37;9.70;70.50
2913;DHT22;1466;48.778;9.166;2023-04-03T14:15:30;9.70;71.20
2913;DHT22;1466;48.778;9.166;2023-04-03T14:17:56;9.60;71.80
2913;DHT22;1466;48.778;9.166;2023-04-03T14:20:25;9.50;71.90
2913;DHT22;1466;48.778;9.166;2023-04-03T14:22:52;9.50;72.30
2913;DHT22;1466;48.778;9.166;2023-04-03T14:25:21;9.50;72.10
2913;DHT22;1466;48.778;9.166;2023-04-03T14:27:50;9.40;71.90
2913;DHT22;1466;48.778;9.166;2023-04-03T14:30:28;9.40;71.70
2913;DHT22;1466;48.778;9.166;2023-04-03T14:32:55;9.40;71.20
2913;DHT22;1466;48.778;9.166;2023-04-03T14:35:21;9.40;71.10
2913;DHT22;1466;48.778;9.166;2023-04-03T14:37:47;9.30;71.50
2913;DHT22;1466;48.778;9.166;2023-04-03T14:40:20;9.20;71.50
2913;DHT22;1466;48.778;9.166;2023-04-03T14:42:46;9.20;71.50
2913;DHT22;1466;48.778;9.166;2023-04-03T14:45:15;9.30;71.60
2913;DHT22;1466;48.778;9.166;2023-04-03T14:47:45;9.60;71.80
2913;DHT22;1466;48.778;9.166;2023-04-03T14:50:16;9.80;70.90
2913;DHT22;1466;48.778;9.166;2023-04-03T14:52:42;9.70;69.40
2913;DHT22;1466;48.778;9.166;2023-04-03T14:55:09;9.70;69.60
2913;DHT22;1466;48.778;9.166;2023-04-03T14:57:34;9.70;69.60
2913;DHT22;1466;48.778;9.166;2023-04-03T15:00:00;9.50;69.20
2913;DHT22;1466;48.778;9.166;2023-04-03T15:02:31;9.50;69.20
2913;DHT22;1466;48.778;9.166;2023-04-03T15:04:59;9.40;69.00
2913;DHT22;1466;48.778;9.166;2023-04-03T15:07:27;9.40;69.00
2913;DHT22;1466;48.778;9.166;2023-04-03T15:09:54;9.30;68.70
2913;DHT22;1466;48.778;9.166;2023-04-03T15:12:22;9.20;68.60
2913;DHT22;1466;48.778;9.166;2023-04-03T15:14:47;9.30;68.50
2913;DHT22;1466;48.778;9.166;2023-04-03T15:17:19;9.20;68.80
2913;DHT22;1466;48.778;9.166;2023-04-03T15:19:46;9.30;68.90
2913;DHT22;1466;48.778;9.166;2023-04-03T15:22:17;9.30;68.90
2913;DHT22;1466;48.778;9.166;2023-04-03T15:24:44;9.30;68.50
2913;DHT22;1466;48.778;9.166;2023-04-03T15:27:10;9.20;67.70
2913;DHT22;1466;48.778;9.166;2023-04-03T15:29:38;9.20;67.60
2913;DHT22;1466;48.778;9.166;2023-04-03T15:32:04;9.20;67.00
2913;DHT22;1466;48.778;9.166;2023-04-03T15:34:30;9.20;65.50
2913;DHT22;1466;48.778;9.166;2023-04-03T15:36:56;9.10;65.30
2913;DHT22;1466;48.778;9.166;2023-04-03T15:39:22;9.10;65.90
2913;DHT22;1466;48.778;9.166;2023-04-03T15:41:48;9.10;66.70
2913;DHT22;1466;48.778;9.166;2023-04-03T15:44:14;9.10;66.90
2913;DHT22;1466;48.778;9.166;2023-04-03T15:46:43;9.10;67.30
2913;DHT22;1466;48.778;9.166;2023-04-03T15:49:09;9.00;67.50
2913;DHT22;1466;48.778;9.166;2023-04-03T15:51:35;9.00;67.10
2913;DHT22;1466;48.778;9.166;2023-04-03T15:54:01;8.90;67.70
2913;DHT22;1466;48.778;9.166;2023-04-03T15:56:26;9.00;68.10
2913;DHT22;1466;48.778;9.166;2023-04-03T15:58:52;9.10;68.70
2913;DHT22;1466;48.778;9.166;2023-04-03T16:01:17;9.10;66.80
2913;DHT22;1466;48.778;9.166;2023-04-03T16:03:43;9.20;66.60
2913;DHT22;1466;48.778;9.166;2023-04-03T16:06:15;9.20;66.20
2913;DHT22;1466;48.778;9.166;2023-04-03T16:08:41;9.30;66.00
2913;DHT22;1466;48.778;9.166;2023-04-03T16:11:07;9.30;65.80
2913;DHT22;1466;48.778;9.166;2023-04-03T16:13:32;9.40;65.80
2913;DHT22;1466;48.778;9.166;2023-04-03T16:15:59;9.30;65.30
2913;DHT22;1466;48.778;9.166;2023-04-03T16:18:25;9.30;65.10
2913;DHT22;1466;48.778;9.166;2023-04-03T16:20:51;9.30;65.60
2913;DHT22;1466;48.778;9.166;2023-04-03T16:23:17;9.20;65.60
2913;DHT22;1466;48.778;9.166;2023-04-03T16:25:43;9.20;65.00
2913;DHT22;1466;48.778;9.166;2023-04-03T16:28:13;9.10;64.50
2913;DHT22;1466;48.778;9.166;2023-04-03T16:30:41;9.00;64.80
2913;DHT22;1466;48.778;9.166;2023-04-03T16:33:07;8.90;65.20
2913;DHT22;1466;48.778;9.166;2023-04-03T16:35:34;8.80;64.10
2913;DHT22;1466;48.778;9.166;2023-04-03T16:37:59;8.80;64.20
2913;DHT22;1466;48.778;9.166;2023-04-03T16:40:25;8.80;64.70
2913;DHT22;1466;48.778;9.166;2023-04-03T16:42:51;8.80;64.40
2913;DHT22;1466;48.778;9.166;2023-04-03T16:45:19;8.70;64.10
2913;DHT22;1466;48.778;9.166;2023-04-03T16:47:45;8.80;64.30
2913;DHT22;1466;48.778;9.166;2023-04-03T16:50:11;8.80;64.40
2913;DHT22;1466;48.778;9.166;2023-04-03T16:52:36;9.00;64.40
2913;DHT22;1466;48.778;9.166;2023-04-03T16:55:02;9.00;64.80
2913;DHT22;1466;48.778;9.166;2023-04-03T16:57:28;9.20;65.20
2913;DHT22;1466;48.778;9.166;2023-04-03T16:59:54;9.20;65.30
2913;DHT22;1466;48.778;9.166;2023-04-03T17:02:21;9.20;65.60
2913;DHT22;1466;48.778;9.166;2023-04-03T17:04:50;9.10;65.80
2913;DHT22;1466;48.778;9.166;2023-04-03T17:07:17;9.10;66.20
2913;DHT22;1466;48.778;9.166;2023-04-03T17:09:42;9.00;66.30
2913;DHT22;1466;48.778;9.166;2023-04-03T17:12:08;8.90;66.20
2913;DHT22;1466;48.778;9.166;2023-04-03T17:14:33;8.90;66.50
2913;DHT22;1466;48.778;9.166;2023-04-03T17:16:59;8.80;66.50
2913;DHT22;1466;48.778;9.166;2023-04-03T17:19:25;8.70;66.00
2913;DHT22;1466;48.778;9.166;2023-04-03T17:21:52;8.70;66.10
2913;DHT22;1466;48.778;9.166;2023-04-03T17:24:17;8.70;66.30
2913;DHT22;1466;48.778;9.166;2023-04-03T17:26:43;8.70;66.50
2913;DHT22;1466;48.778;9.166;2023-04-03T17:29:09;8.70;66.60
2913;DHT22;1466;48.778;9.166;2023-04-03T17:31:35;8.70;66.70
2913;DHT22;1466;48.778;9.166;2023-04-03T17:34:01;8.60;66.80
2913;DHT22;1466;48.778;9.166;2023-04-03T17:36:28;8.50;66.80
2913;DHT22;1466;48.778;9.166;2023-04-03T17:38:53;8.50;66.70
2913;DHT22;1466;48.778;9.166;2023-04-03T17:41:19;8.40;66.50
2913;DHT22;1466;48.778;9.166;2023-04-03T17:43:45;8.40;66.80
2913;DHT22;1466;48.778;9.166;2023-04-03T17:46:11;8.40;67.00
2913;DHT22;1466;48.778;9.166;2023-04-03T17:48:39;8.30;66.80
2913;DHT22;1466;48.778;9.166;2023-04-03T17:51:11;8.40;67.00
2913;DHT22;1466;48.778;9.166;2023-04-03T17:53:38;8.40;67.20
2913;DHT22;1466;48.778;9.166;2023-04-03T17:56:11;8.40;67.30
2913;DHT22;1466;48.778;9.166;2023-04-03T17:58:37;8.40;67.30
2913;DHT22;1466;48.778;9.166;2023-04-03T18:01:12;8.40;67.20
2913;DHT22;1466;48.778;9.166;2023-04-03T18:03:39;8.40;67.30
2913;DHT22;1466;48.778;9.166;2023-04-03T18:06:08;8.40;67.50
2913;DHT22;1466;48.778;9.166;2023-04-03T18:08:37;8.30;67.50
2913;DHT22;1466;48.778;9.166;2023-04-03T18:11:04;8.40;67.80
2913;DHT22;1466;48.778;9.166;2023-04-03T18:13:30;8.30;67.80
2913;DHT22;1466;48.778;9.166;2023-04-03T18:15:56;8.30;68.00
2913;DHT22;1466;48.778;9.166;2023-04-03T18:18:21;8.30;68.20
2913;DHT22;1466;48.778;9.166;2023-04-03T18:20:47;8.30;68.20
2913;DHT22;1466;48.778;9.166;2023-04-03T18:23:13;8.20;68.30